createdAt,value
2023-02-02T00:03:25.968Z,31.1
2023-02-02T00:09:31.964Z,31.2
2023-02-02T00:15:37.735Z,31
2023-02-02T00:21:43.320Z,31.2
2023-02-02T00:27:49.014Z,31.1
2023-02-02T00:33:54.567Z,31.2
2023-02-02T00:39:59.207Z,31.1
2023-02-02T00:46:05.207Z,31.3
2023-02-02T00:52:11.191Z,31.1
2023-02-02T00:58:16.530Z,31.3
2023-02-02T01:04:22.486Z,31.2
2023-02-02T01:10:28.306Z,31.2
2023-02-02T01:16:34.300Z,31.3
2023-02-02T01:22:40.811Z,31.4
2023-02-02T01:28:46.767Z,31.3
2023-02-02T01:34:52.751Z,31.4
2023-02-02T01:40:58.400Z,31.5
2023-02-02T01:47:04.720Z,31.5
2023-02-02T01:53:10.700Z,31.5
2023-02-02T01:59:16.472Z,31.5
2023-02-02T02:05:22.578Z,31.5
2023-02-02T02:11:28.633Z,31.5
2023-02-02T02:17:33.758Z,31.4
2023-02-02T02:23:39.563Z,31.5
2023-02-02T02:29:45.189Z,31.4
2023-02-02T02:35:50.932Z,31.5
2023-02-02T02:41:56.710Z,31.4
2023-02-02T02:48:02.482Z,31.6
2023-02-02T02:54:07.425Z,31.6
2023-02-02T03:00:13.070Z,31.4
2023-02-02T03:06:18.574Z,31.5
2023-02-02T03:12:24.550Z,31.4
2023-02-02T03:18:29.931Z,31.4
2023-02-02T03:24:35.699Z,31.4
2023-02-02T03:30:41.733Z,31.4
2023-02-02T03:36:47.271Z,31.5
2023-02-02T03:42:52.496Z,31.6
2023-02-02T03:48:58.621Z,31.6
2023-02-02T03:55:03.764Z,31.7
2023-02-02T04:01:09.543Z,31.6
2023-02-02T04:07:15.518Z,31.7
2023-02-02T04:13:21.094Z,31.7
2023-02-02T04:19:26.343Z,31.8
2023-02-02T04:25:32.467Z,31.8
2023-02-02T04:31:38.335Z,31.8
2023-02-02T04:37:44.201Z,31.8
2023-02-02T04:43:50.166Z,31.8
2023-02-02T04:49:55.963Z,31.8
2023-02-02T04:56:01.536Z,31.8
2023-02-02T05:02:07.944Z,31.7
2023-02-02T05:08:13.913Z,31.6
2023-02-02T05:14:19.703Z,31.7
2023-02-02T05:20:24.688Z,31.6
2023-02-02T05:26:30.521Z,31.6
2023-02-02T05:32:36.057Z,31.6
2023-02-02T05:38:40.806Z,31.6
2023-02-02T05:44:47.116Z,31.6
2023-02-02T05:50:53.153Z,31.6
2023-02-02T05:56:59.149Z,31.6
2023-02-02T06:03:04.618Z,31.7
2023-02-02T06:09:10.006Z,31.7
2023-02-02T06:15:15.995Z,31.7
2023-02-02T06:21:21.864Z,31.7
2023-02-02T06:27:27.753Z,31.8
2023-02-02T06:33:33.957Z,31.8
2023-02-02T06:39:39.110Z,31.8
2023-02-02T06:45:44.071Z,31.8
2023-02-02T06:51:48.920Z,31.9
2023-02-02T06:57:54.997Z,31.9
2023-02-02T07:04:00.857Z,31.9
2023-02-02T07:10:06.833Z,31.9
2023-02-02T07:16:12.629Z,32
2023-02-02T07:22:18.553Z,32
2023-02-02T07:28:24.389Z,32
2023-02-02T07:34:30.086Z,32
2023-02-02T07:40:36.096Z,32
2023-02-02T07:46:42.471Z,32
2023-02-02T07:52:48.228Z,32
2023-02-02T07:58:53.858Z,32
2023-02-02T08:05:01.151Z,32
2023-02-02T08:11:06.791Z,32.1
2023-02-02T08:17:13.188Z,32.1
2023-02-02T08:23:19.164Z,32.1
2023-02-02T08:29:24.518Z,32.2
2023-02-02T08:35:30.290Z,32.2
2023-02-02T08:41:35.865Z,32.2
2023-02-02T08:47:42.072Z,32.2
2023-02-02T08:53:48.234Z,32.2
2023-02-02T08:59:53.876Z,32.3
2023-02-02T09:05:59.686Z,32.3
2023-02-02T09:12:04.962Z,32.3
2023-02-02T09:18:10.764Z,32.4
2023-02-02T09:24:16.501Z,32.4
2023-02-02T09:30:22.509Z,32.4
2023-02-02T09:36:28.919Z,32.5
2023-02-02T09:42:34.351Z,32.5
2023-02-02T09:48:39.969Z,32.5
2023-02-02T09:54:45.889Z,32.5
2023-02-02T10:00:52.645Z,32.6
2023-02-02T10:06:58.199Z,32.7
2023-02-02T10:13:04.011Z,32.8
2023-02-02T10:19:09.877Z,32.8
2023-02-02T10:25:16.127Z,32.7
2023-02-02T10:31:22.648Z,32.7
2023-02-02T10:37:28.603Z,32.7
2023-02-02T10:43:34.876Z,32.8
2023-02-02T10:49:39.967Z,32.8
2023-02-02T10:55:46.011Z,32.8
2023-02-02T11:01:51.719Z,32.9
2023-02-02T11:07:56.756Z,32.9
2023-02-02T11:14:02.119Z,32.9
2023-02-02T11:20:07.706Z,32.9
2023-02-02T11:26:13.684Z,32.9
2023-02-02T11:32:18.926Z,32.9
2023-02-02T11:38:24.840Z,33
2023-02-02T11:44:30.073Z,32.9
2023-02-02T11:50:36.176Z,32.9
2023-02-02T11:56:41.205Z,32.9
2023-02-02T12:02:47.403Z,33
2023-02-02T12:08:52.942Z,33
2023-02-02T12:14:59.682Z,33
2023-02-02T12:21:05.873Z,33.1
2023-02-02T12:27:11.447Z,33.1
2023-02-02T12:33:17.298Z,33.2
2023-02-02T12:39:23.824Z,33.2
2023-02-02T12:45:29.511Z,33.3
2023-02-02T12:51:35.222Z,33.4
2023-02-02T12:57:41.371Z,33.5
2023-02-02T13:03:47.127Z,33.5
2023-02-02T13:09:52.951Z,33.6
2023-02-02T13:15:58.714Z,33.6
2023-02-02T13:22:04.884Z,33.7
2023-02-02T13:28:10.223Z,33.7
2023-02-02T13:34:15.871Z,33.8
2023-02-02T13:40:22.202Z,33.8
2023-02-02T13:46:28.226Z,33.9
2023-02-02T13:52:34.364Z,33.8
2023-02-02T13:58:40.373Z,33.8
2023-02-02T14:04:46.547Z,33.7
2023-02-02T14:10:52.007Z,33.8
2023-02-02T14:16:57.943Z,33.6
2023-02-02T14:23:04.298Z,33.5
2023-02-02T14:29:09.869Z,33.3
2023-02-02T14:35:16.062Z,33.2
2023-02-02T14:41:21.993Z,33.2
2023-02-02T14:47:28.205Z,33.1
2023-02-02T14:53:34.070Z,33.2
2023-02-02T14:59:40.177Z,33.1
2023-02-02T15:05:46.623Z,33.2
2023-02-02T15:11:52.522Z,33.2
2023-02-02T15:18:00.710Z,33.3
2023-02-02T15:24:07.152Z,33.3
2023-02-02T15:30:14.559Z,33.5
2023-02-02T15:36:21.269Z,33.5
2023-02-02T15:42:27.554Z,33.6
2023-02-02T15:48:33.987Z,33.7
2023-02-02T15:54:39.924Z,33.7
2023-02-02T16:00:45.985Z,33.8
2023-02-02T16:06:51.556Z,33.8
2023-02-02T16:12:57.641Z,33.8
2023-02-02T16:19:03.648Z,33.7
2023-02-02T16:25:09.435Z,33.7
2023-02-02T16:31:15.139Z,33.8
2023-02-02T16:37:20.991Z,33.9
2023-02-02T16:43:27.161Z,33.8
2023-02-02T16:49:33.560Z,33.8
2023-02-02T16:55:54.490Z,33.7
2023-02-02T17:02:01.207Z,33.8
2023-02-02T17:08:07.277Z,33.8
2023-02-02T17:14:13.039Z,34
2023-02-02T17:20:19.027Z,34
2023-02-02T17:26:24.999Z,34
2023-02-02T17:32:30.668Z,33.9
2023-02-02T17:38:35.814Z,33.8
2023-02-02T17:44:41.588Z,33.9
2023-02-02T17:50:47.923Z,34
2023-02-02T17:56:54.311Z,33.9
2023-02-02T18:03:00.477Z,33.9
2023-02-02T18:09:07.484Z,33.8
2023-02-02T18:15:13.520Z,33.9
2023-02-02T18:21:19.242Z,33.9
2023-02-02T18:27:25.436Z,34
2023-02-02T18:33:31.208Z,34
2023-02-02T18:39:36.857Z,34.1
2023-02-02T18:45:42.772Z,34
2023-02-02T18:51:49.074Z,33.9
2023-02-02T18:57:55.144Z,34
2023-02-02T19:04:01.443Z,34
2023-02-02T19:10:07.722Z,34.1
2023-02-02T19:16:13.553Z,34.1
2023-02-02T19:22:19.686Z,34.1
2023-02-02T19:28:25.789Z,34.1
2023-02-02T19:34:31.846Z,34.1
2023-02-02T19:40:37.644Z,34.1
2023-02-02T19:46:44.044Z,34.1
2023-02-02T19:52:48.812Z,34.1
2023-02-02T19:58:54.607Z,34
2023-02-02T20:05:00.925Z,34.1
2023-02-02T20:11:07.335Z,34.4
2023-02-02T20:17:13.513Z,34.3
2023-02-02T20:23:19.891Z,34.1
2023-02-02T20:29:25.707Z,34.1
2023-02-02T20:35:31.671Z,34.2
2023-02-02T20:41:37.519Z,34.1
2023-02-02T20:47:43.212Z,34.3
2023-02-02T20:53:49.403Z,34.4
2023-02-02T20:59:55.604Z,34.4
2023-02-02T21:06:01.562Z,34.5
2023-02-02T21:12:07.363Z,34.3
2023-02-02T21:18:13.334Z,34.4
2023-02-02T21:24:19.926Z,34.6
2023-02-02T21:30:26.554Z,34.7
2023-02-02T21:36:33.152Z,34.7
2023-02-02T21:42:38.903Z,34.7
2023-02-02T21:48:44.678Z,34.7
2023-02-02T21:54:50.862Z,34.6
2023-02-02T22:00:56.646Z,34.9
2023-02-02T22:07:02.609Z,34.7
2023-02-02T22:13:08.607Z,35
2023-02-02T22:19:14.599Z,34.9
2023-02-02T22:25:20.763Z,34.9
2023-02-02T22:31:27.505Z,35
2023-02-02T22:37:33.013Z,34.9
2023-02-02T22:43:39.131Z,35
2023-02-02T22:49:44.391Z,35
2023-02-02T22:55:49.860Z,35
2023-02-02T23:01:56.242Z,34.9
2023-02-02T23:08:02.212Z,35
2023-02-02T23:14:08.417Z,35
2023-02-02T23:20:14.617Z,35.1
2023-02-02T23:26:20.601Z,35.1
2023-02-02T23:32:26.801Z,34.9
2023-02-02T23:38:32.536Z,35
2023-02-02T23:44:38.320Z,35.1
2023-02-02T23:50:44.314Z,34.9
2023-02-02T23:56:50.311Z,35
